createdAt,value
2019-06-08T00:01:26.556Z,16.80
2019-06-08T00:03:56.270Z,16.75
2019-06-08T00:06:26.020Z,16.74
2019-06-08T00:08:55.720Z,16.75
2019-06-08T00:11:25.442Z,16.76
2019-06-08T00:13:55.203Z,16.73
2019-06-08T00:16:24.886Z,16.70
2019-06-08T00:18:54.713Z,16.68
2019-06-08T00:21:24.534Z,16.65
2019-06-08T00:23:54.307Z,16.64
2019-06-08T00:26:24.461Z,16.63
2019-06-08T00:32:12.512Z,16.59
2019-06-08T00:34:42.347Z,16.56
2019-06-08T00:37:12.168Z,16.51
2019-06-08T00:39:41.864Z,16.49
2019-06-08T00:42:11.584Z,16.47
2019-06-08T00:44:41.375Z,16.43
2019-06-08T00:47:11.212Z,16.43
2019-06-08T00:49:40.896Z,16.43
2019-06-08T00:52:10.604Z,16.34
2019-06-08T00:54:40.304Z,16.33
2019-06-08T00:57:10.048Z,16.30
2019-06-08T00:59:39.803Z,16.24
2019-06-08T01:02:09.571Z,16.15
2019-06-08T01:04:40.326Z,16.07
2019-06-08T01:07:10.049Z,16.01
2019-06-08T01:09:39.788Z,15.94
2019-06-08T01:12:09.643Z,15.90
2019-06-08T01:14:39.455Z,15.86
2019-06-08T01:17:09.244Z,15.74
2019-06-08T01:19:39.124Z,15.63
2019-06-08T01:22:08.819Z,15.55
2019-06-08T01:24:38.679Z,15.47
2019-06-08T01:27:08.424Z,15.32
2019-06-08T01:29:38.125Z,15.20
2019-06-08T01:32:07.831Z,15.10
2019-06-08T01:34:38.569Z,15.04
2019-06-08T01:37:08.284Z,15.02
2019-06-08T01:39:37.983Z,15.01
2019-06-08T01:42:07.719Z,14.96
2019-06-08T01:44:37.444Z,14.95
2019-06-08T01:47:07.208Z,14.90
2019-06-08T01:49:36.913Z,14.85
2019-06-08T01:52:06.735Z,14.79
2019-06-08T01:54:36.476Z,14.72
2019-06-08T01:57:06.178Z,14.71
2019-06-08T01:59:35.885Z,14.69
2019-06-08T02:02:05.752Z,14.66
2019-06-08T02:04:35.478Z,14.61
2019-06-08T02:07:05.430Z,14.57
2019-06-08T02:09:35.143Z,14.55
2019-06-08T02:12:06.034Z,14.50
2019-06-08T02:14:36.701Z,14.41
2019-06-08T02:17:06.460Z,14.41
2019-06-08T02:19:36.145Z,14.34
2019-06-08T02:22:05.898Z,14.32
2019-06-08T02:24:35.601Z,14.27
2019-06-08T02:27:05.463Z,14.26
2019-06-08T02:29:36.231Z,14.23
2019-06-08T02:32:06.026Z,14.23
2019-06-08T02:34:37.921Z,14.22
2019-06-08T02:37:07.255Z,14.28
2019-06-08T02:39:38.462Z,14.26
2019-06-08T02:42:08.793Z,14.24
2019-06-08T02:44:38.627Z,14.28
2019-06-08T02:47:08.772Z,14.24
2019-06-08T02:49:39.717Z,14.22
2019-06-08T02:52:10.391Z,14.26
2019-06-08T02:54:41.368Z,14.23
2019-06-08T02:57:13.243Z,14.19
2019-06-08T02:59:43.525Z,14.15
2019-06-08T03:02:14.912Z,14.17
2019-06-08T03:04:44.601Z,14.16
2019-06-08T03:07:16.820Z,14.09
2019-06-08T03:09:48.645Z,14.13
2019-06-08T03:12:20.079Z,14.13
2019-06-08T03:14:52.617Z,14.15
2019-06-08T03:17:22.304Z,14.18
2019-06-08T03:19:52.012Z,14.18
2019-06-08T03:22:21.716Z,14.20
2019-06-08T03:24:51.416Z,14.15
2019-06-08T03:27:21.106Z,14.11
2019-06-08T03:29:50.819Z,14.08
2019-06-08T03:32:20.549Z,14.04
2019-06-08T03:34:55.776Z,13.99
2019-06-08T03:37:21.661Z,14.00
2019-06-08T03:39:51.356Z,13.98
2019-06-08T03:42:21.121Z,14.03
2019-06-08T03:44:51.888Z,14.06
2019-06-08T03:47:21.585Z,14.05
2019-06-08T03:49:57.050Z,14.01
2019-06-08T03:52:22.689Z,14.02
2019-06-08T03:54:53.379Z,14.01
2019-06-08T03:57:23.076Z,14.02
2019-06-08T03:59:52.771Z,14.05
2019-06-08T04:02:22.643Z,14.02
2019-06-08T04:04:52.395Z,14.01
2019-06-08T04:07:22.081Z,13.99
2019-06-08T04:09:51.819Z,13.99
2019-06-08T04:12:21.512Z,13.98
2019-06-08T04:14:51.251Z,14.00
2019-06-08T04:17:21.047Z,14.00
2019-06-08T04:20:09.345Z,14.03
2019-06-08T04:22:22.183Z,14.05
2019-06-08T04:24:51.891Z,14.08
2019-06-08T04:27:21.608Z,14.11
2019-06-08T04:29:51.336Z,14.15
2019-06-08T04:32:21.078Z,14.21
2019-06-08T04:34:50.805Z,14.27
2019-06-08T04:37:20.505Z,14.32
2019-06-08T04:39:50.982Z,14.36
2019-06-08T04:42:20.858Z,14.41
2019-06-08T04:44:50.626Z,14.54
2019-06-08T04:47:20.427Z,14.68
2019-06-08T04:49:50.120Z,14.83
2019-06-08T04:52:19.917Z,15.09
2019-06-08T04:54:49.875Z,15.25
2019-06-08T04:57:20.695Z,15.36
2019-06-08T04:59:50.580Z,15.40
2019-06-08T05:02:20.346Z,15.63
2019-06-08T05:04:50.133Z,16.31
2019-06-08T05:07:19.996Z,17.31
2019-06-08T05:09:49.872Z,18.27
2019-06-08T05:12:19.575Z,19.15
2019-06-08T05:14:49.838Z,19.32
2019-06-08T05:17:19.821Z,20.06
2019-06-08T05:19:50.544Z,20.70
2019-06-08T05:22:20.705Z,21.20
2019-06-08T05:24:50.427Z,21.85
2019-06-08T05:27:20.302Z,22.32
2019-06-08T05:29:50.274Z,21.52
2019-06-08T05:32:20.316Z,20.55
2019-06-08T05:34:50.090Z,19.41
2019-06-08T05:37:19.955Z,18.62
2019-06-08T05:39:49.970Z,18.06
2019-06-08T05:42:19.796Z,17.70
2019-06-08T05:44:50.330Z,17.74
2019-06-08T05:47:20.249Z,17.93
2019-06-08T05:49:50.106Z,18.65
2019-06-08T05:52:19.919Z,19.48
2019-06-08T05:54:50.142Z,18.97
2019-06-08T05:57:20.236Z,18.35
2019-06-08T05:59:50.329Z,17.99
2019-06-08T06:02:20.284Z,17.98
2019-06-08T06:04:52.193Z,18.96
2019-06-08T06:07:21.754Z,19.04
2019-06-08T06:09:51.487Z,19.15
2019-06-08T06:12:21.288Z,18.98
2019-06-08T06:14:51.214Z,18.83
2019-06-08T06:17:21.175Z,18.37
2019-06-08T06:19:51.543Z,17.95
2019-06-08T06:22:21.445Z,17.64
2019-06-08T06:25:45.707Z,17.33
2019-06-08T06:28:14.042Z,17.24
2019-06-08T06:30:44.222Z,17.45
2019-06-08T06:33:14.335Z,18.36
2019-06-08T06:35:45.769Z,19.39
2019-06-08T06:38:15.634Z,19.48
2019-06-08T06:40:48.006Z,19.13
2019-06-08T06:43:17.721Z,18.56
2019-06-08T06:45:48.064Z,18.07
2019-06-08T06:48:17.841Z,17.75
2019-06-08T06:50:48.368Z,17.87
2019-06-08T06:53:18.122Z,18.65
2019-06-08T06:55:48.935Z,19.10
2019-06-08T06:58:18.919Z,18.93
2019-06-08T07:00:49.424Z,18.49
2019-06-08T07:03:19.476Z,18.27
2019-06-08T07:05:49.947Z,18.27
2019-06-08T07:08:21.214Z,18.24
2019-06-08T07:10:50.915Z,18.24
2019-06-08T07:13:20.732Z,19.53
2019-06-08T07:15:53.121Z,20.31
2019-06-08T07:18:21.905Z,20.40
2019-06-08T07:20:52.310Z,19.89
2019-06-08T07:23:22.094Z,19.50
2019-06-08T07:25:52.951Z,19.23
2019-06-08T07:28:22.890Z,18.97
2019-06-08T07:30:52.822Z,18.83
2019-06-08T07:33:22.603Z,18.95
2019-06-08T07:35:53.367Z,19.62
2019-06-08T07:38:23.201Z,20.87
2019-06-08T07:40:53.928Z,22.40
2019-06-08T07:43:24.337Z,21.95
2019-06-08T07:45:54.225Z,20.90
2019-06-08T07:48:25.046Z,20.16
2019-06-08T07:50:54.802Z,19.61
2019-06-08T07:53:24.556Z,19.35
2019-06-08T07:55:56.096Z,19.19
2019-06-08T07:58:25.666Z,19.60
2019-06-08T08:01:00.728Z,21.21
2019-06-08T08:03:26.887Z,23.16
2019-06-08T08:05:56.795Z,24.33
2019-06-08T08:08:26.576Z,24.39
2019-06-08T08:10:56.748Z,23.79
2019-06-08T08:13:26.582Z,23.13
2019-06-08T08:15:58.625Z,23.04
2019-06-08T08:18:27.715Z,23.33
2019-06-08T08:20:59.210Z,23.41
2019-06-08T08:23:28.941Z,23.41
2019-06-08T08:26:01.593Z,23.21
2019-06-08T08:28:30.076Z,22.84
2019-06-08T08:31:01.779Z,23.01
2019-06-08T08:33:31.390Z,23.71
2019-06-08T08:36:02.217Z,23.35
2019-06-08T08:38:32.095Z,23.71
2019-06-08T08:41:07.295Z,24.99
2019-06-08T08:43:33.178Z,24.79
2019-06-08T08:46:02.877Z,23.62
2019-06-08T08:48:32.576Z,22.81
2019-06-08T08:51:03.611Z,23.02
2019-06-08T08:53:33.552Z,23.33
2019-06-08T08:56:03.245Z,23.84
2019-06-08T08:58:33.901Z,25.24
2019-06-08T09:01:03.963Z,26.29
2019-06-08T09:03:39.279Z,26.63
2019-06-08T09:06:08.727Z,26.73
2019-06-08T09:08:38.696Z,25.85
2019-06-08T09:11:08.485Z,25.02
2019-06-08T09:13:38.273Z,24.17
2019-06-08T09:16:08.250Z,23.19
2019-06-08T09:18:38.139Z,22.89
2019-06-08T09:21:08.509Z,22.76
2019-06-08T09:23:38.437Z,24.31
2019-06-08T09:26:12.382Z,25.80
2019-06-08T09:28:39.729Z,26.25
2019-06-08T09:31:12.821Z,25.23
2019-06-08T09:33:40.976Z,24.85
2019-06-08T09:36:10.825Z,24.93
2019-06-08T09:38:40.622Z,23.96
2019-06-08T09:41:10.320Z,23.84
2019-06-08T09:43:40.094Z,24.97
2019-06-08T09:46:09.797Z,24.28
2019-06-08T09:48:39.593Z,22.82
2019-06-08T09:51:09.610Z,22.26
2019-06-08T09:53:41.565Z,22.10
2019-06-08T09:56:12.947Z,22.21
2019-06-08T09:58:42.725Z,21.70
2019-06-08T10:01:12.630Z,21.61
2019-06-08T10:03:42.535Z,21.58
2019-06-08T10:06:12.825Z,21.51
2019-06-08T10:08:42.724Z,21.52
2019-06-08T10:11:12.381Z,21.76
2019-06-08T10:13:43.343Z,21.72
2019-06-08T10:16:13.365Z,21.78
2019-06-08T10:18:43.171Z,21.67
2019-06-08T10:21:13.819Z,21.84
2019-06-08T10:23:43.586Z,22.68
2019-06-08T10:26:13.497Z,22.98
2019-06-08T10:28:43.207Z,23.37
2019-06-08T10:31:12.890Z,24.35
2019-06-08T10:33:42.652Z,24.03
2019-06-08T10:36:13.088Z,23.24
2019-06-08T10:38:44.024Z,24.09
2019-06-08T10:41:18.995Z,25.30
2019-06-08T10:43:48.032Z,25.60
2019-06-08T10:46:20.558Z,25.96
2019-06-08T10:48:48.734Z,26.12
2019-06-08T10:51:18.583Z,26.25
2019-06-08T10:53:52.085Z,26.47
2019-06-08T10:56:19.709Z,26.72
2019-06-08T10:58:49.878Z,26.04
2019-06-08T11:01:19.859Z,25.86
2019-06-08T11:03:49.563Z,26.06
2019-06-08T11:06:19.834Z,25.58
2019-06-08T11:08:49.518Z,24.25
2019-06-08T11:11:20.446Z,24.36
2019-06-08T11:13:50.665Z,25.04
2019-06-08T11:16:20.662Z,26.21
2019-06-08T11:18:51.108Z,26.41
2019-06-08T11:21:21.125Z,26.74
2019-06-08T11:24:05.860Z,27.09
2019-06-08T11:26:24.453Z,26.28
2019-06-08T11:28:53.691Z,25.05
2019-06-08T11:31:23.384Z,24.22
2019-06-08T11:33:53.094Z,24.63
2019-06-08T11:36:22.788Z,25.91
2019-06-08T11:38:52.495Z,25.84
2019-06-08T11:41:22.954Z,24.41
2019-06-08T11:43:52.810Z,23.95
2019-06-08T11:46:22.534Z,24.68
2019-06-08T11:48:52.296Z,25.75
2019-06-08T11:51:22.001Z,26.53
2019-06-08T11:53:52.625Z,26.01
2019-06-08T11:56:24.662Z,24.54
2019-06-08T11:58:58.667Z,23.57
2019-06-08T12:01:28.527Z,23.33
2019-06-08T12:03:58.239Z,22.89
2019-06-08T12:06:27.991Z,22.80
2019-06-08T12:09:00.130Z,22.69
2019-06-08T12:11:29.160Z,22.85
2019-06-08T12:13:58.915Z,22.92
2019-06-08T12:16:28.638Z,22.99
2019-06-08T12:18:58.781Z,23.35
2019-06-08T12:21:28.725Z,23.22
2019-06-08T12:23:58.580Z,23.05
2019-06-08T12:26:28.313Z,22.85
2019-06-08T12:29:01.222Z,22.78
2019-06-08T12:31:29.415Z,22.87
2019-06-08T12:33:59.208Z,22.94
2019-06-08T12:36:30.710Z,23.46
2019-06-08T12:39:00.524Z,23.87
2019-06-08T12:41:31.878Z,23.53
2019-06-08T12:44:01.614Z,23.29
2019-06-08T12:46:31.341Z,23.34
2019-06-08T12:49:01.112Z,23.47
2019-06-08T12:51:30.870Z,23.44
2019-06-08T12:54:00.602Z,23.13
2019-06-08T12:56:30.301Z,23.40
2019-06-08T12:59:00.080Z,23.72
2019-06-08T13:01:29.871Z,23.46
2019-06-08T13:03:59.650Z,23.29
2019-06-08T13:06:29.417Z,23.22
2019-06-08T13:08:59.175Z,23.17
2019-06-08T13:11:28.904Z,23.38
2019-06-08T13:13:58.720Z,23.37
2019-06-08T13:16:28.538Z,23.30
2019-06-08T13:18:58.772Z,23.31
2019-06-08T13:21:35.081Z,23.37
2019-06-08T13:24:00.216Z,23.08
2019-06-08T13:26:31.164Z,22.98
2019-06-08T13:29:01.078Z,22.85
2019-06-08T13:31:30.763Z,22.68
2019-06-08T13:34:00.531Z,22.64
2019-06-08T13:36:30.231Z,22.59
2019-06-08T13:38:59.950Z,22.58
2019-06-08T13:41:30.106Z,22.58
2019-06-08T13:43:59.896Z,22.64
2019-06-08T13:46:29.580Z,22.78
2019-06-08T13:48:59.302Z,22.69
2019-06-08T13:51:29.232Z,22.72
2019-06-08T13:53:58.939Z,22.88
2019-06-08T13:56:28.748Z,23.05
2019-06-08T13:58:58.712Z,23.26
2019-06-08T14:01:30.819Z,23.23
2019-06-08T14:04:00.019Z,22.98
2019-06-08T14:06:29.703Z,22.76
2019-06-08T14:08:59.716Z,22.74
2019-06-08T14:11:29.429Z,22.90
2019-06-08T14:14:01.180Z,23.03
2019-06-08T14:16:30.881Z,22.92
2019-06-08T14:19:00.790Z,22.26
2019-06-08T14:21:38.769Z,22.24
2019-06-08T14:24:01.884Z,22.53
2019-06-08T14:26:31.577Z,22.15
2019-06-08T14:29:01.810Z,21.73
2019-06-08T14:31:32.719Z,21.69
2019-06-08T14:34:03.388Z,21.74
2019-06-08T14:36:33.087Z,21.76
2019-06-08T14:39:03.028Z,21.82
2019-06-08T14:41:34.341Z,21.66
2019-06-08T14:44:04.211Z,21.81
2019-06-08T14:46:33.970Z,21.86
2019-06-08T14:49:03.762Z,21.85
2019-06-08T14:51:49.576Z,21.89
2019-06-08T14:54:24.350Z,21.83
2019-06-08T14:56:52.102Z,21.67
2019-06-08T14:59:22.556Z,21.89
2019-06-08T15:01:53.246Z,22.22
2019-06-08T15:04:26.659Z,22.37
2019-06-08T15:06:54.358Z,22.13
2019-06-08T15:09:24.091Z,22.13
2019-06-08T15:11:53.778Z,22.08
2019-06-08T15:14:23.724Z,21.90
2019-06-08T15:16:53.499Z,21.68
2019-06-08T15:19:24.366Z,21.54
2019-06-08T15:21:54.149Z,21.52
2019-06-08T15:24:24.636Z,21.70
2019-06-08T15:26:54.558Z,21.75
2019-06-08T15:29:24.963Z,21.85
2019-06-08T15:31:54.873Z,22.03
2019-06-08T15:34:25.241Z,22.14
2019-06-08T15:36:57.449Z,21.78
2019-06-08T15:39:30.382Z,21.45
2019-06-08T15:42:00.099Z,21.62
2019-06-08T15:44:30.695Z,21.78
2019-06-08T15:47:01.136Z,21.76
2019-06-08T15:49:32.269Z,21.47
2019-06-08T15:52:02.261Z,21.36
2019-06-08T15:54:37.066Z,21.37
2019-06-08T15:57:04.247Z,21.31
2019-06-08T15:59:38.750Z,21.19
2019-06-08T16:02:05.675Z,21.27
2019-06-08T16:04:35.397Z,21.52
2019-06-08T16:07:05.585Z,21.69
2019-06-08T16:09:35.419Z,21.68
2019-06-08T16:12:05.250Z,21.58
2019-06-08T16:14:35.076Z,21.59
2019-06-08T16:17:05.060Z,21.46
2019-06-08T16:19:36.018Z,21.31
2019-06-08T16:22:05.874Z,21.13
2019-06-08T16:24:38.661Z,21.02
2019-06-08T16:27:08.448Z,21.04
2019-06-08T16:29:39.251Z,21.12
2019-06-08T16:32:09.272Z,21.26
2019-06-08T16:34:39.694Z,21.28
2019-06-08T16:37:09.848Z,21.13
2019-06-08T16:39:39.606Z,20.78
2019-06-08T16:42:09.388Z,20.66
2019-06-08T16:44:39.113Z,20.76
2019-06-08T16:47:09.107Z,20.77
2019-06-08T16:49:39.641Z,20.96
2019-06-08T16:52:09.509Z,21.08
2019-06-08T16:54:39.225Z,21.19
2019-06-08T16:57:11.186Z,21.22
2019-06-08T16:59:41.373Z,21.28
2019-06-08T17:02:11.098Z,21.23
2019-06-08T17:04:41.899Z,21.25
2019-06-08T17:07:11.702Z,21.23
2019-06-08T17:09:41.417Z,21.10
2019-06-08T17:12:11.721Z,21.12
2019-06-08T17:14:41.585Z,21.02
2019-06-08T17:17:11.297Z,20.73
2019-06-08T17:19:41.093Z,20.73
2019-06-08T17:22:10.903Z,20.73
2019-06-08T17:24:40.895Z,20.78
2019-06-08T17:27:25.894Z,20.78
2019-06-08T17:29:42.415Z,20.77
2019-06-08T17:32:12.142Z,20.75
2019-06-08T17:34:42.910Z,20.65
2019-06-08T17:37:12.609Z,20.65
2019-06-08T17:39:42.790Z,20.63
2019-06-08T17:42:12.609Z,20.56
2019-06-08T17:44:42.702Z,20.47
2019-06-08T17:47:12.558Z,20.37
2019-06-08T17:49:43.263Z,20.24
2019-06-08T17:52:13.301Z,20.20
2019-06-08T17:54:43.403Z,20.16
2019-06-08T17:57:13.225Z,20.14
2019-06-08T17:59:43.010Z,20.03
2019-06-08T18:02:18.935Z,20.03
2019-06-08T18:04:45.289Z,19.98
2019-06-08T18:07:17.016Z,19.92
2019-06-08T18:09:48.455Z,19.85
2019-06-08T18:12:18.710Z,19.79
2019-06-08T18:14:48.536Z,19.72
2019-06-08T18:17:18.509Z,19.66
2019-06-08T18:19:49.652Z,19.58
2019-06-08T18:22:19.737Z,19.51
2019-06-08T18:24:50.638Z,19.49
2019-06-08T18:27:20.446Z,19.46
2019-06-08T18:29:51.110Z,19.42
2019-06-08T18:32:20.908Z,19.36
2019-06-08T18:34:50.698Z,19.32
2019-06-08T18:37:20.559Z,19.24
2019-06-08T18:39:50.280Z,19.16
2019-06-08T18:42:21.270Z,19.05
2019-06-08T18:44:51.010Z,19.00
2019-06-08T18:47:20.860Z,18.93
2019-06-08T18:49:50.590Z,18.88
2019-06-08T18:52:20.443Z,18.84
2019-06-08T18:54:50.192Z,18.80
2019-06-08T18:57:19.949Z,18.68
2019-06-08T18:59:52.749Z,18.55
2019-06-08T19:02:21.205Z,18.43
2019-06-08T19:04:51.007Z,18.32
2019-06-08T19:07:20.800Z,18.21
2019-06-08T19:09:50.847Z,18.12
2019-06-08T19:12:20.651Z,18.00
2019-06-08T19:14:52.263Z,17.90
2019-06-08T19:17:22.394Z,17.77
2019-06-08T19:19:52.617Z,17.65
2019-06-08T19:22:22.482Z,17.54
2019-06-08T19:24:52.235Z,17.46
2019-06-08T19:27:21.943Z,17.38
2019-06-08T19:29:51.984Z,17.30
2019-06-08T19:32:21.842Z,17.19
2019-06-08T19:34:53.983Z,17.08
2019-06-08T19:37:22.961Z,17.01
2019-06-08T19:39:52.686Z,16.93
2019-06-08T19:42:35.741Z,16.84
2019-06-08T19:45:01.162Z,16.73
2019-06-08T19:47:27.579Z,16.61
2019-06-08T19:49:57.748Z,16.54
2019-06-08T19:52:28.576Z,16.51
2019-06-08T19:54:58.356Z,16.50
2019-06-08T19:57:28.379Z,16.49
2019-06-08T20:00:00.338Z,16.40
2019-06-08T20:02:29.756Z,16.31
2019-06-08T20:04:59.502Z,16.22
2019-06-08T20:07:29.193Z,16.14
2019-06-08T20:09:58.953Z,16.14
2019-06-08T20:12:28.660Z,16.13
2019-06-08T20:14:58.532Z,16.13
2019-06-08T20:17:28.598Z,16.07
2019-06-08T20:19:58.599Z,16.05
2019-06-08T20:22:28.262Z,16.05
2019-06-08T20:24:58.052Z,16.08
2019-06-08T20:27:27.861Z,16.12
2019-06-08T20:29:58.236Z,16.14
2019-06-08T20:32:28.336Z,16.20
2019-06-08T20:34:58.161Z,16.26
2019-06-08T20:37:28.406Z,16.36
2019-06-08T20:40:09.772Z,16.45
2019-06-08T20:42:30.063Z,16.49
2019-06-08T20:45:00.707Z,16.47
2019-06-08T20:47:31.601Z,16.48
2019-06-08T20:50:01.420Z,16.48
2019-06-08T20:52:31.194Z,16.51
2019-06-08T20:55:01.158Z,16.52
2019-06-08T20:57:30.855Z,16.55
2019-06-08T21:00:08.193Z,16.51
2019-06-08T21:02:32.418Z,16.41
2019-06-08T21:05:02.121Z,16.31
2019-06-08T21:07:31.839Z,16.23
2019-06-08T21:10:01.553Z,16.15
2019-06-08T21:12:31.266Z,16.10
2019-06-08T21:15:01.117Z,16.03
2019-06-08T21:17:30.902Z,15.97
2019-06-08T21:20:00.719Z,15.91
2019-06-08T21:22:30.577Z,15.85
2019-06-08T21:25:00.441Z,15.80
2019-06-08T21:27:30.161Z,15.76
2019-06-08T21:30:08.477Z,15.73
2019-06-08T21:32:32.482Z,15.67
2019-06-08T21:35:02.202Z,15.59
2019-06-08T21:37:31.902Z,15.50
2019-06-08T21:40:04.184Z,15.47
2019-06-08T21:42:33.187Z,15.40
2019-06-08T21:45:06.145Z,15.31
2019-06-08T21:47:34.553Z,15.28
2019-06-08T21:50:04.949Z,15.22
2019-06-08T21:52:34.651Z,15.19
2019-06-08T21:55:07.068Z,15.18
2019-06-08T21:57:37.087Z,15.14
2019-06-08T22:00:34.815Z,15.13
2019-06-08T22:02:47.833Z,15.13
2019-06-08T22:05:18.678Z,15.09
2019-06-08T22:07:48.463Z,15.03
2019-06-08T22:10:18.389Z,14.94
2019-06-08T22:12:48.581Z,14.83
2019-06-08T22:15:18.747Z,14.71
2019-06-08T22:17:48.853Z,14.62
2019-06-08T22:20:18.922Z,14.49
2019-06-08T22:22:51.809Z,14.38
2019-06-08T22:25:21.321Z,14.33
2019-06-08T22:27:53.518Z,14.30
2019-06-08T22:30:38.830Z,14.30
2019-06-08T22:32:55.631Z,14.24
2019-06-08T22:35:27.586Z,14.15
2019-06-08T22:37:58.064Z,14.13
2019-06-08T22:40:28.759Z,14.13
2019-06-08T22:43:00.757Z,14.07
2019-06-08T22:45:30.331Z,13.86
2019-06-08T22:48:01.834Z,13.76
2019-06-08T22:50:31.643Z,13.67
2019-06-08T22:53:02.860Z,13.55
2019-06-08T22:55:33.150Z,13.50
2019-06-08T22:58:03.426Z,13.56
2019-06-08T23:00:49.141Z,13.68
2019-06-08T23:03:08.630Z,13.77
2019-06-08T23:05:38.305Z,13.80
2019-06-08T23:08:09.547Z,13.80
2019-06-08T23:10:39.491Z,13.76
2019-06-08T23:13:09.334Z,13.69
2019-06-08T23:15:39.163Z,13.64
2019-06-08T23:18:09.584Z,13.56
2019-06-08T23:20:39.564Z,13.49
2019-06-08T23:23:09.326Z,13.48
2019-06-08T23:25:39.292Z,13.49
2019-06-08T23:28:09.893Z,13.37
2019-06-08T23:30:40.928Z,13.29
2019-06-08T23:33:11.682Z,13.26
2019-06-08T23:36:20.806Z,13.23
2019-06-08T23:38:13.264Z,13.23
2019-06-08T23:40:43.920Z,13.28
2019-06-08T23:43:13.781Z,13.29
2019-06-08T23:45:43.545Z,13.34
2019-06-08T23:48:13.260Z,13.40
2019-06-08T23:50:43.298Z,13.42
2019-06-08T23:53:13.205Z,13.32
2019-06-08T23:55:43.538Z,13.24
2019-06-08T23:58:13.263Z,13.17
